East Canyon Creek Flow Near ECWRF

♦ The data used to create the chart above are available in the table below.
♦ You may freely copy and paste the table below for further analysis.
♦ If higher frequency or longer history data are required, click here for the USGS NWISWeb page. The East Canyon Creek gage below the East Canyon Water Reclamation Facility is 10133800.
♦ For ECWRF data, contact Michael Boyle, Operations Manager, at 435.214.5229.
♦ The Utah Division of Wildlife Resources has advised that a minimum flow of 3.5 cfs, preferably 6.0 cfs, is required to support East Canyon Creek's cold-water fishery.

Disclaimer
The Snyderville Basin Water Reclamation District provides no warranty, expressed or implied, as to the relevance, accuracy, reliability or completeness of the data. The link to the USGS NWISWeb page is for convenience only. The Snyderville Basin Water Reclamation District does not have any control over the collection or maintenance of the stream flow data at the East Canyon Creek gage below ECWRF and cannot guarantee the relevance, timeliness, or accuracy of that data.

Provisional Flow Data (cfs)
Date Downstream Flow ECWRF Flow Upstream Flow % ECWRF Flow
4/1/2020 82.3 4.95 77.35 6.01
4/2/2020 78.6 4.95 73.65 6.30
4/3/2020 58.2 4.56 53.64 7.84
4/4/2020 55.1 4.37 50.73 7.93
4/5/2020 62.2 4.38 57.82 7.04
4/6/2020 67.9 4.71 63.19 6.94
4/7/2020 67.8 4.58 63.22 6.76
4/8/2020 71.6 4.8 66.8 6.70
4/9/2020 72.5 4.9 67.6 6.76
4/10/2020 74.6 4.87 69.73 6.53
4/11/2020 72.4 4.66 67.74 6.44
4/12/2020 70.5 4.48 66.02 6.35
4/13/2020 59.7 4.41 55.29 7.39
4/14/2020 52.1 4.04 48.06 7.75
4/15/2020 52.8 4 48.8 7.58
4/16/2020 61.5 4.13 57.37 6.72
4/17/2020 52.7 3.93 48.77 7.46
4/18/2020 48.8 3.86 44.94 7.91
4/19/2020 47.9 3.76 44.14 7.85
4/20/2020 49.2 3.82 45.38 7.76
4/21/2020 50.2 3.91 46.29 7.79
4/22/2020 53.5 3.85 49.65 7.20
4/23/2020 59.9 3.96 55.94 6.61
4/24/2020 62.5 3.99 58.51 6.38
4/25/2020 61.1 3.89 57.21 6.37
4/26/2020 64.8 3.89 60.91 6.00
4/27/2020 66.7 3.95 62.75 5.92
4/28/2020 68.9 3.96 64.94 5.75
4/29/2020 69.1 3.96 65.14 5.73
4/30/2020 74.6 4.02 70.58 5.39
5/1/2020 85.2 4.01 81.19 4.71
5/2/2020 86.2 4.02 82.18 4.66
5/3/2020 85.2 4 81.2 4.69
5/4/2020 82.6 3.98 78.62 4.82
5/5/2020 76.5 3.82 72.68 4.99
5/6/2020 73 3.77 69.23 5.16
5/7/2020 74.9 3.78 71.12 5.05
5/8/2020 75 3.87 71.13 5.16
5/9/2020 72.6 3.78 68.82 5.21
5/10/2020 71.5 3.73 67.77 5.22
5/11/2020 74.3 3.9 70.4 5.25
5/12/2020 80.3 3.88 76.42 4.83
5/13/2020 80.3 3.8 76.5 4.73
5/14/2020 77.3 3.67 73.63 4.75
5/15/2020 73.6 3.55 70.05 4.82
5/16/2020 64.3 3.56 60.74 5.54
5/17/2020 59.1 3.49 55.61 5.91
5/18/2020 61.5 3.62 57.88 5.89
5/19/2020 70.1 3.8 66.3 5.42
5/20/2020 73.1 3.61 69.49 4.94
5/21/2020 70.8 3.6 67.2 5.08
5/22/2020 61.1 3.62 57.48 5.92
5/23/2020 62.4 3.68 58.72 5.90
5/24/2020 57.1 3.69 53.41 6.46
5/25/2020 53.5 3.75 49.75 7.01
5/26/2020 47.7 3.59 44.11 7.53
5/27/2020 45.1 3.53 41.57 7.83
5/28/2020 44.7 3.59 41.11 8.03
5/29/2020 49.5 3.74 45.76 7.56
5/30/2020 55.6 3.71 51.89 6.67
5/31/2020 59.5 3.79 55.71 6.37
6/1/2020 58.2 3.82 54.38 6.56